Time;durP1;ratioP1;P1;durP2;ratioP2;P2;SDS_P1;SDS_P2;PMS_P1;PMS_P2;Temp;Humidity;BMP_temperature;BMP_pressure;BME280_temperature;BME280_humidity;BME280_pressure;Samples;Min_cycle;Max_cycle;Signal;HPM_P1;HPM_P2
2023/08/05 00:00:13;;;;;;;4.23;2.67;;;14.90;99.90;;;;;;5035533;28;20037;-71
2023/08/05 00:02:38;;;;;;;5.53;2.70;;;14.80;99.90;;;;;;5036243;28;20059;-70
2023/08/05 00:05:06;;;;;;;3.73;2.47;;;14.90;99.90;;;;;;5030826;28;20306;-70
2023/08/05 00:07:32;;;;;;;7.60;2.42;;;14.90;99.90;;;;;;5031860;28;20048;-70
2023/08/05 00:09:57;;;;;;;8.63;2.57;;;14.90;99.90;;;;;;5021374;28;20100;-70
2023/08/05 00:12:23;;;;;;;4.30;2.50;;;14.90;99.90;;;;;;5020590;28;20017;-70
2023/08/05 00:14:49;;;;;;;4.57;2.93;;;14.90;99.90;;;;;;5028666;28;20031;-71
2023/08/05 00:17:15;;;;;;;5.23;2.13;;;15.00;99.90;;;;;;5028415;28;20079;-70
2023/08/05 00:19:42;;;;;;;14.17;2.37;;;14.90;99.90;;;;;;5034815;28;20026;-70
2023/08/05 00:22:08;;;;;;;6.50;3.03;;;15.00;99.90;;;;;;5026820;28;20030;-70
2023/08/05 00:24:34;;;;;;;3.63;2.33;;;15.00;99.90;;;;;;5032611;28;20025;-70
2023/08/05 00:26:59;;;;;;;4.50;2.70;;;15.00;99.90;;;;;;5030642;28;20071;-71
2023/08/05 00:29:25;;;;;;;8.27;3.40;;;14.90;99.90;;;;;;5033343;28;20049;-79
2023/08/05 00:31:51;;;;;;;4.47;2.97;;;14.90;99.90;;;;;;5031902;28;20474;-70
2023/08/05 00:34:16;;;;;;;6.83;3.07;;;14.80;99.90;;;;;;5015471;28;20087;-70
2023/08/05 00:36:42;;;;;;;8.93;3.10;;;14.80;99.90;;;;;;5018982;28;20044;-70
2023/08/05 00:39:08;;;;;;;5.93;3.33;;;15.00;99.90;;;;;;5027650;28;20029;-70
2023/08/05 00:41:33;;;;;;;4.30;2.70;;;15.00;99.90;;;;;;5023667;28;20030;-70
2023/08/05 00:43:59;;;;;;;4.53;3.07;;;15.00;99.90;;;;;;5030516;28;20140;-70
2023/08/05 00:46:25;;;;;;;5.80;3.63;;;15.00;99.90;;;;;;5021401;28;20025;-78
2023/08/05 00:48:52;;;;;;;11.32;3.72;;;15.00;99.90;;;;;;5031189;28;20025;-70
2023/08/05 00:51:20;;;;;;;7.40;4.22;;;15.00;99.90;;;;;;5027306;28;20072;-70
2023/08/05 00:53:47;;;;;;;7.38;3.63;;;15.00;99.90;;;;;;5026706;28;20022;-70
2023/08/05 00:56:14;;;;;;;6.88;3.40;;;15.00;99.90;;;;;;5026266;28;20041;-70
2023/08/05 00:58:42;;;;;;;5.40;3.42;;;15.10;99.90;;;;;;5026493;28;20018;-70
2023/08/05 01:01:08;;;;;;;6.93;3.50;;;15.10;99.90;;;;;;5028061;28;20040;-70
2023/08/05 01:03:34;;;;;;;6.13;3.73;;;15.20;99.90;;;;;;5023476;28;20021;-70
2023/08/05 01:06:01;;;;;;;6.65;3.53;;;15.20;99.90;;;;;;5025559;28;20032;-70
2023/08/05 01:08:27;;;;;;;4.88;3.55;;;15.20;99.90;;;;;;5026045;28;20076;-70
2023/08/05 01:10:53;;;;;;;6.47;3.45;;;15.10;99.90;;;;;;5034383;28;20056;-70
2023/08/05 01:13:20;;;;;;;4.80;3.70;;;15.10;99.90;;;;;;5024002;28;20025;-70
2023/08/05 01:15:46;;;;;;;10.13;3.92;;;15.10;99.90;;;;;;5022238;28;20032;-70
2023/08/05 01:18:14;;;;;;;9.10;4.77;;;15.00;99.90;;;;;;5028319;28;20125;-70
2023/08/05 01:20:46;;;;;;;4.82;3.47;;;15.10;99.90;;;;;;5022339;28;20087;-71
2023/08/05 01:23:55;;;;;;;7.80;3.78;;;15.10;99.90;;;;;;5026427;28;20032;-70
2023/08/05 01:26:21;;;;;;;6.85;3.95;;;15.10;99.90;;;;;;5024593;28;20037;-70
2023/08/05 01:28:48;;;;;;;6.97;4.60;;;15.10;99.90;;;;;;5024396;28;20041;-70
2023/08/05 01:31:15;;;;;;;6.63;3.80;;;15.20;99.90;;;;;;5028622;28;20031;-70
2023/08/05 01:33:41;;;;;;;8.30;4.75;;;15.10;99.90;;;;;;5041214;28;20504;-70
2023/08/05 01:36:07;;;;;;;6.43;4.03;;;15.10;99.90;;;;;;5039003;28;20025;-70
2023/08/05 01:38:33;;;;;;;9.40;4.30;;;15.10;99.90;;;;;;5037600;28;20032;-70
2023/08/05 01:40:59;;;;;;;7.07;4.37;;;15.10;99.90;;;;;;5050452;28;20030;-70
2023/08/05 01:43:24;;;;;;;5.13;3.67;;;15.10;99.90;;;;;;5029862;28;20032;-70
2023/08/05 01:45:50;;;;;;;10.67;4.13;;;15.10;99.90;;;;;;5036440;28;20310;-70
2023/08/05 01:48:16;;;;;;;7.27;4.20;;;15.10;99.90;;;;;;5030499;28;20443;-70
2023/08/05 01:50:42;;;;;;;9.53;4.17;;;15.10;99.90;;;;;;5042599;28;20097;-70
2023/08/05 01:53:08;;;;;;;6.20;3.60;;;15.10;99.90;;;;;;5034216;28;20377;-70
2023/08/05 01:55:34;;;;;;;11.67;4.27;;;15.10;99.90;;;;;;5033618;28;20100;-70
2023/08/05 01:57:59;;;;;;;9.67;4.33;;;15.20;99.90;;;;;;5026371;28;20025;-70
2023/08/05 02:00:25;;;;;;;5.07;3.50;;;15.10;99.90;;;;;;5048716;28;20036;-70
2023/08/05 02:02:51;;;;;;;7.33;3.90;;;15.10;99.90;;;;;;5030219;28;20042;-70
2023/08/05 02:05:16;;;;;;;6.40;3.60;;;15.10;99.90;;;;;;5028623;28;20030;-70
2023/08/05 02:07:42;;;;;;;5.23;3.60;;;15.20;99.90;;;;;;5026057;28;20036;-71
2023/08/05 02:10:08;;;;;;;11.17;3.60;;;15.30;99.90;;;;;;5038731;28;20053;-70
2023/08/05 02:12:33;;;;;;;6.90;3.33;;;15.30;99.90;;;;;;5021740;28;20400;-70
2023/08/05 02:14:59;;;;;;;6.73;3.53;;;15.20;99.90;;;;;;5030203;28;20075;-70
2023/08/05 02:17:25;;;;;;;4.47;3.03;;;15.20;99.90;;;;;;5034211;28;20084;-79
2023/08/05 02:19:50;;;;;;;7.37;3.50;;;15.20;99.90;;;;;;5026721;28;20048;-70
2023/08/05 02:22:16;;;;;;;7.10;4.30;;;15.20;99.90;;;;;;5034038;28;20040;-70
2023/08/05 02:24:42;;;;;;;7.43;3.17;;;15.20;99.90;;;;;;5049491;28;20056;-70
2023/08/05 02:27:07;;;;;;;5.37;3.53;;;15.20;99.90;;;;;;5030622;28;20502;-70
2023/08/05 02:29:33;;;;;;;7.53;3.07;;;15.20;99.90;;;;;;5027490;28;20121;-71
2023/08/05 02:31:59;;;;;;;7.63;3.77;;;15.20;99.90;;;;;;5034427;28;20033;-70
2023/08/05 02:34:25;;;;;;;4.53;2.95;;;15.20;99.90;;;;;;5035501;28;20026;-79
2023/08/05 02:36:51;;;;;;;5.83;3.80;;;15.30;99.90;;;;;;5047547;28;20428;-70
2023/08/05 02:39:16;;;;;;;5.53;3.67;;;15.30;99.90;;;;;;5036260;28;20029;-70
2023/08/05 02:41:42;;;;;;;7.23;3.47;;;15.20;99.90;;;;;;5030094;28;20032;-70
2023/08/05 02:44:08;;;;;;;7.23;4.10;;;15.30;99.90;;;;;;5038065;28;20026;-70
2023/08/05 02:46:34;;;;;;;5.37;3.17;;;15.30;99.90;;;;;;5044834;28;20076;-70
2023/08/05 02:48:59;;;;;;;5.47;3.33;;;15.30;99.90;;;;;;5038064;28;20093;-70
2023/08/05 02:51:25;;;;;;;5.50;4.10;;;15.40;99.90;;;;;;5036256;28;20306;-79
2023/08/05 02:53:51;;;;;;;7.27;3.73;;;15.40;99.90;;;;;;5037192;28;20030;-70
2023/08/05 02:56:16;;;;;;;8.80;3.97;;;15.40;99.90;;;;;;5037872;28;20071;-70
2023/08/05 02:58:42;;;;;;;5.67;3.97;;;15.40;99.90;;;;;;5033597;28;20089;-70
2023/08/05 03:01:08;;;;;;;6.80;3.87;;;15.30;99.90;;;;;;5029762;28;20025;-71
2023/08/05 03:03:37;;;;;;;5.47;3.75;;;15.30;99.90;;;;;;5036178;28;20053;-70
2023/08/05 03:06:04;;;;;;;5.55;3.80;;;15.30;99.90;;;;;;5037630;28;20317;-70
2023/08/05 03:08:29;;;;;;;8.02;4.10;;;15.30;99.90;;;;;;5037763;28;20025;-70
2023/08/05 03:10:59;;;;;;;10.77;4.20;;;15.20;99.90;;;;;;5035995;28;20339;-70
2023/08/05 03:13:25;;;;;;;9.13;4.40;;;15.20;99.90;;;;;;5027122;28;20365;-70
2023/08/05 03:15:51;;;;;;;7.10;4.20;;;15.30;99.90;;;;;;5021416;28;20037;-70
2023/08/05 03:18:17;;;;;;;8.20;4.40;;;15.20;99.90;;;;;;5023223;28;20036;-70
2023/08/05 03:20:43;;;;;;;9.02;4.97;;;15.20;99.90;;;;;;5034268;28;20034;-70
2023/08/05 03:23:10;;;;;;;12.27;4.63;;;15.20;99.90;;;;;;5035359;28;20320;-70
2023/08/05 03:25:36;;;;;;;7.88;3.97;;;15.10;99.90;;;;;;5051981;28;20044;-70
2023/08/05 03:28:02;;;;;;;9.15;4.50;;;15.20;99.90;;;;;;5041783;28;20504;-70
2023/08/05 03:30:28;;;;;;;7.47;4.80;;;15.10;99.90;;;;;;5037024;28;20121;-71
2023/08/05 03:32:54;;;;;;;6.43;3.87;;;15.10;99.90;;;;;;5033612;28;20026;-70
2023/08/05 03:35:19;;;;;;;8.70;4.10;;;15.10;99.90;;;;;;5028322;28;20045;-71
2023/08/05 03:37:45;;;;;;;9.93;5.00;;;15.10;99.90;;;;;;5035448;28;20439;-70
2023/08/05 03:40:13;;;;;;;10.20;4.75;;;15.10;99.90;;;;;;5036683;28;20029;-70
2023/08/05 03:42:39;;;;;;;8.60;4.72;;;15.10;99.90;;;;;;5029314;28;20302;-70
2023/08/05 03:45:06;;;;;;;8.10;4.15;;;15.10;99.90;;;;;;5035323;28;20164;-70
2023/08/05 03:47:32;;;;;;;;;;;15.00;99.90;;;;;;5035828;28;20391;-70
2023/08/05 03:49:58;;;;;;;9.18;4.05;;;15.00;99.90;;;;;;5035116;28;19912;-70
2023/08/05 03:52:26;;;;;;;8.67;4.60;;;15.00;99.90;;;;;;5035039;28;20316;-80
2023/08/05 03:54:52;;;;;;;8.68;4.22;;;15.00;99.90;;;;;;5037064;28;20026;-70
2023/08/05 03:57:18;;;;;;;17.02;4.55;;;15.00;99.90;;;;;;5030520;28;20409;-70
2023/08/05 03:59:45;;;;;;;8.43;4.73;;;15.10;99.90;;;;;;5027701;28;20034;-70
2023/08/05 04:02:11;;;;;;;9.90;4.85;;;15.00;99.90;;;;;;5024632;28;20037;-70
2023/08/05 04:04:37;;;;;;;6.85;4.45;;;15.00;99.90;;;;;;5026943;28;20034;-70
2023/08/05 04:07:02;;;;;;;7.47;4.50;;;15.00;99.90;;;;;;5033878;28;20025;-70
2023/08/05 04:09:28;;;;;;;9.25;4.18;;;15.00;99.90;;;;;;5052249;28;20022;-71
2023/08/05 04:11:55;;;;;;;9.20;4.80;;;14.90;99.90;;;;;;5035770;28;20038;-70
2023/08/05 04:14:23;;;;;;;9.60;4.32;;;14.90;99.90;;;;;;5030898;28;20018;-70
2023/08/05 04:16:48;;;;;;;8.00;4.47;;;15.00;99.90;;;;;;5025034;28;20419;-70
2023/08/05 04:19:18;;;;;;;5.80;3.57;;;15.00;99.90;;;;;;5035845;28;20044;-70
2023/08/05 04:21:47;;;;;;;8.95;3.22;;;15.00;99.90;;;;;;5034936;28;20028;-70
2023/08/05 04:24:19;;;;;;;8.95;4.47;;;15.00;99.90;;;;;;5022730;28;20029;-70
2023/08/05 04:26:45;;;;;;;6.35;4.35;;;15.00;99.90;;;;;;5021471;28;20044;-71
2023/08/05 04:29:10;;;;;;;11.50;4.47;;;15.00;99.90;;;;;;5032436;28;20046;-70
2023/08/05 04:31:38;;;;;;;6.23;3.80;;;15.00;99.90;;;;;;5020676;28;20388;-70
2023/08/05 04:34:04;;;;;;;5.43;3.53;;;15.00;99.90;;;;;;5034973;28;20414;-70
2023/08/05 04:36:30;;;;;;;6.20;3.90;;;15.00;99.90;;;;;;5035539;28;20029;-70
2023/08/05 04:38:58;;;;;;;6.55;4.07;;;15.00;99.90;;;;;;5034422;28;20424;-70
2023/08/05 04:41:23;;;;;;;7.45;3.33;;;15.10;99.90;;;;;;5025715;28;20425;-79
2023/08/05 04:43:49;;;;;;;6.73;3.90;;;15.10;99.90;;;;;;5034865;28;20036;-70
2023/08/05 04:46:15;;;;;;;7.93;3.97;;;15.10;99.90;;;;;;5035655;28;20346;-70
2023/08/05 04:48:40;;;;;;;6.97;3.97;;;15.10;99.90;;;;;;5035142;28;20052;-70
2023/08/05 04:51:06;;;;;;;7.57;3.57;;;15.10;99.90;;;;;;5046347;28;20057;-70
2023/08/05 04:53:32;;;;;;;9.60;3.97;;;15.10;99.90;;;;;;5021934;28;21810;-70
2023/08/05 04:55:57;;;;;;;7.20;3.93;;;15.10;99.90;;;;;;5035390;28;20339;-70
2023/08/05 04:58:23;;;;;;;10.73;3.33;;;15.10;99.90;;;;;;5034271;28;20026;-79
2023/08/05 05:00:49;;;;;;;6.87;3.87;;;15.10;99.90;;;;;;5028225;28;20076;-70
2023/08/05 05:03:14;;;;;;;7.53;4.27;;;15.10;99.90;;;;;;5022151;28;20420;-70
2023/08/05 05:05:42;;;;;;;5.87;3.90;;;15.10;99.90;;;;;;5018600;28;20428;-70
2023/08/05 05:08:08;;;;;;;9.88;3.85;;;15.10;99.90;;;;;;5017052;28;20026;-71
2023/08/05 05:10:34;;;;;;;7.77;4.03;;;15.20;99.90;;;;;;5027531;28;20428;-70
2023/08/05 05:12:59;;;;;;;8.37;3.50;;;15.20;99.90;;;;;;5022287;28;20036;-70
2023/08/05 05:15:25;;;;;;;6.33;3.77;;;15.20;99.90;;;;;;5026858;28;20025;-70
2023/08/05 05:17:51;;;;;;;7.03;4.37;;;15.20;99.90;;;;;;5034885;28;20028;-70
2023/08/05 05:20:16;;;;;;;8.33;3.80;;;15.20;99.90;;;;;;5034339;28;20034;-70
2023/08/05 05:22:42;;;;;;;6.43;3.93;;;15.20;99.90;;;;;;5019797;28;20107;-70
2023/08/05 05:25:08;;;;;;;6.63;3.83;;;15.20;99.90;;;;;;5028308;28;20034;-72
2023/08/05 05:27:34;;;;;;;6.90;4.17;;;15.30;99.90;;;;;;5028118;28;20021;-70
2023/08/05 05:30:00;;;;;;;10.35;3.75;;;15.30;99.90;;;;;;5024675;28;20045;-70
2023/08/05 05:32:26;;;;;;;9.20;4.00;;;15.30;99.90;;;;;;5021865;28;20032;-70
2023/08/05 05:34:52;;;;;;;7.43;3.90;;;15.30;99.90;;;;;;5022525;28;20029;-70
2023/08/05 05:37:17;;;;;;;7.00;3.80;;;15.40;99.90;;;;;;5034710;28;20029;-70
2023/08/05 05:39:44;;;;;;;9.17;4.37;;;15.40;99.90;;;;;;5023772;28;20320;-70
2023/08/05 05:42:10;;;;;;;11.32;4.55;;;15.50;99.90;;;;;;5029113;28;20025;-71
2023/08/05 05:44:38;;;;;;;7.70;4.47;;;15.60;99.90;;;;;;5039253;28;20041;-70
2023/08/05 05:47:05;;;;;;;10.43;4.55;;;15.60;99.90;;;;;;5033815;28;20387;-70
2023/08/05 05:49:30;;;;;;;;;;;15.60;99.90;;;;;;5027580;28;20022;-70
2023/08/05 05:51:56;;;;;;;15.57;4.37;;;15.60;99.90;;;;;;5023524;28;20325;-71
2023/08/05 05:54:22;;;;;;;6.27;4.30;;;15.60;99.90;;;;;;5024077;28;20021;-71
2023/08/05 05:56:48;;;;;;;6.03;4.22;;;15.60;99.90;;;;;;5029728;28;20445;-70
2023/08/05 05:59:13;;;;;;;9.57;5.03;;;15.70;99.90;;;;;;5025857;28;20041;-71
2023/08/05 06:01:39;;;;;;;12.87;5.37;;;15.70;99.90;;;;;;5026998;28;20466;-70
2023/08/05 06:04:09;;;;;;;10.40;4.93;;;15.70;99.90;;;;;;5023213;28;20037;-70
2023/08/05 06:06:35;;;;;;;6.60;4.88;;;15.80;99.90;;;;;;5025150;28;20394;-70
2023/08/05 06:09:02;;;;;;;6.97;4.65;;;15.80;99.90;;;;;;5023770;28;20328;-70
2023/08/05 06:11:28;;;;;;;9.20;4.75;;;15.90;99.90;;;;;;5021324;28;20033;-70
2023/08/05 06:13:54;;;;;;;9.03;4.77;;;15.80;99.90;;;;;;5035773;28;20021;-70
2023/08/05 06:16:19;;;;;;;8.30;4.40;;;15.90;99.90;;;;;;5024853;28;20018;-72
2023/08/05 06:18:45;;;;;;;8.73;4.57;;;15.90;99.90;;;;;;5039653;28;20028;-71
2023/08/05 06:21:10;;;;;;;10.13;5.77;;;15.90;99.90;;;;;;5031551;28;20021;-70
2023/08/05 06:23:36;;;;;;;9.83;4.83;;;16.00;99.90;;;;;;5031782;28;20085;-71
2023/08/05 06:26:02;;;;;;;10.87;4.47;;;16.00;99.90;;;;;;5045048;28;20020;-70
2023/08/05 06:28:27;;;;;;;10.77;5.13;;;16.00;99.90;;;;;;5036608;28;20025;-71
2023/08/05 06:30:56;;;;;;;7.30;4.20;;;16.00;99.90;;;;;;5045558;28;20048;-71
2023/08/05 06:33:22;;;;;;;8.80;4.18;;;16.10;99.90;;;;;;5036084;28;20017;-71
2023/08/05 06:35:47;;;;;;;10.33;4.83;;;16.10;99.90;;;;;;5030885;28;20029;-71
2023/08/05 06:38:13;;;;;;;8.33;4.90;;;16.10;99.90;;;;;;5039173;28;20025;-71
2023/08/05 06:40:41;;;;;;;11.43;5.33;;;16.10;99.90;;;;;;5040029;28;20039;-71
2023/08/05 06:43:07;;;;;;;9.98;5.60;;;16.10;99.90;;;;;;5035728;28;20037;-71
2023/08/05 06:45:33;;;;;;;10.27;4.83;;;16.10;99.90;;;;;;5047228;28;20036;-71
2023/08/05 06:47:59;;;;;;;9.70;5.13;;;16.10;99.90;;;;;;5039168;28;20037;-71
2023/08/05 06:50:24;;;;;;;9.20;4.60;;;16.10;99.90;;;;;;5037478;28;20080;-77
2023/08/05 06:52:50;;;;;;;12.73;5.07;;;16.10;99.90;;;;;;5035282;28;20493;-71
2023/08/05 06:55:18;;;;;;;9.33;4.67;;;16.10;99.90;;;;;;5026810;28;20021;-70
2023/08/05 06:57:48;;;;;;;11.40;4.65;;;16.20;99.90;;;;;;5045095;28;20037;-71
2023/08/05 07:00:14;;;;;;;14.20;5.28;;;16.20;99.90;;;;;;5039263;28;20028;-78
2023/08/05 07:02:40;;;;;;;11.07;4.53;;;16.30;99.90;;;;;;5029757;28;20034;-71
2023/08/05 07:05:06;;;;;;;10.90;4.67;;;16.50;99.90;;;;;;5040166;28;20124;-71
2023/08/05 07:07:32;;;;;;;9.67;5.30;;;16.60;99.90;;;;;;5040485;28;20033;-78
2023/08/05 07:10:01;;;;;;;11.23;4.95;;;16.70;99.90;;;;;;5041322;28;20361;-71
2023/08/05 07:12:27;;;;;;;10.10;4.75;;;16.80;99.90;;;;;;5036284;28;20026;-78
2023/08/05 07:14:53;;;;;;;5.90;3.70;;;16.90;99.90;;;;;;5018944;28;20155;-70
2023/08/05 07:17:20;;;;;;;5.13;3.17;;;17.00;99.90;;;;;;5026769;28;20109;-71
2023/08/05 07:19:46;;;;;;;6.75;3.58;;;17.10;99.90;;;;;;5049081;28;20389;-70
2023/08/05 07:22:11;;;;;;;6.70;3.57;;;17.20;99.90;;;;;;5046332;28;20120;-70
2023/08/05 07:24:37;;;;;;;7.70;2.97;;;17.40;99.90;;;;;;5026369;28;20116;-70
2023/08/05 07:27:04;;;;;;;9.17;3.40;;;17.70;99.90;;;;;;5030611;28;20033;-71
2023/08/05 07:29:29;;;;;;;7.00;3.40;;;17.80;99.90;;;;;;5033228;28;20053;-72
2023/08/05 07:31:55;;;;;;;12.73;4.37;;;17.90;99.90;;;;;;5035162;28;20036;-71
2023/08/05 07:34:22;;;;;;;5.73;3.67;;;17.90;99.90;;;;;;5028459;28;20057;-71
2023/08/05 07:36:47;;;;;;;;;;;18.00;99.90;;;;;;5036542;28;20041;-72
2023/08/05 07:39:13;;;;;;;6.37;3.13;;;18.00;99.90;;;;;;5029148;28;19913;-70
2023/08/05 07:41:39;;;;;;;4.40;3.07;;;18.00;99.90;;;;;;5033619;28;20021;-71
2023/08/05 07:44:05;;;;;;;7.00;3.60;;;18.00;99.90;;;;;;5044985;28;20436;-71
2023/08/05 07:46:31;;;;;;;6.05;3.65;;;18.00;99.90;;;;;;5034768;28;20112;-71
2023/08/05 07:49:00;;;;;;;5.45;2.63;;;18.10;99.90;;;;;;5044862;28;20102;-71
2023/08/05 07:51:26;;;;;;;4.70;2.85;;;18.10;99.90;;;;;;5034663;28;20032;-78
2023/08/05 07:53:55;;;;;;;7.13;3.10;;;18.10;99.90;;;;;;5031044;28;20116;-71
2023/08/05 07:56:22;;;;;;;4.90;2.38;;;18.10;99.90;;;;;;5028010;28;20032;-70
2023/08/05 07:58:48;;;;;;;3.58;2.60;;;18.10;99.90;;;;;;5044012;28;20104;-70
2023/08/05 08:01:24;;;;;;;5.60;2.70;;;18.20;99.90;;;;;;5026014;28;20370;-71
2023/08/05 08:03:54;;;;;;;5.65;2.00;;;18.20;99.90;;;;;;5034517;28;20027;-70
2023/08/05 08:06:20;;;;;;;4.20;2.53;;;18.30;99.90;;;;;;5030334;28;20098;-71
2023/08/05 08:08:46;;;;;;;6.88;2.97;;;18.50;99.90;;;;;;5031690;28;20100;-71
2023/08/05 08:11:13;;;;;;;10.32;2.78;;;18.60;99.90;;;;;;5033816;28;20036;-71
2023/08/05 08:13:39;;;;;;;3.38;2.25;;;18.70;99.90;;;;;;5031801;28;20033;-70
2023/08/05 08:16:05;;;;;;;6.53;2.78;;;18.70;99.90;;;;;;5022130;28;20034;-79
2023/08/05 08:18:31;;;;;;;5.72;2.53;;;18.80;99.90;;;;;;5028188;28;20026;-71
2023/08/05 08:20:57;;;;;;;5.22;3.08;;;19.00;99.90;;;;;;5033859;28;20032;-70
2023/08/05 08:23:23;;;;;;;8.90;2.88;;;19.10;99.90;;;;;;5036415;28;20017;-71
2023/08/05 08:25:49;;;;;;;7.90;3.25;;;19.10;99.90;;;;;;5034696;28;20037;-71
2023/08/05 08:28:14;;;;;;;6.87;3.63;;;19.30;99.90;;;;;;5035558;28;20037;-71
2023/08/05 08:30:54;;;;;;;3.77;2.40;;;19.40;99.90;;;;;;5036014;28;20053;-79
2023/08/05 08:33:21;;;;;;;3.85;2.85;;;19.50;99.90;;;;;;5031196;28;20030;-71
2023/08/05 08:35:47;;;;;;;5.68;2.78;;;19.70;99.90;;;;;;5027046;28;20034;-71
2023/08/05 08:38:13;;;;;;;5.07;2.70;;;19.80;99.90;;;;;;5035089;28;20344;-71
2023/08/05 08:40:44;;;;;;;4.30;3.33;;;19.90;99.90;;;;;;5033753;28;20033;-70
2023/08/05 08:43:10;;;;;;;5.68;3.63;;;19.90;99.90;;;;;;5030907;28;20026;-70
2023/08/05 08:45:36;;;;;;;5.53;3.13;;;20.00;99.90;;;;;;5036016;28;20294;-71
2023/08/05 08:48:02;;;;;;;4.90;3.30;;;19.90;99.90;;;;;;5051500;28;20026;-71
2023/08/05 08:50:29;;;;;;;4.72;2.92;;;19.80;99.90;;;;;;5034958;28;20530;-72
2023/08/05 08:52:58;;;;;;;3.88;2.83;;;19.70;99.90;;;;;;5035856;28;20018;-71
2023/08/05 08:55:26;;;;;;;4.47;2.75;;;19.50;99.90;;;;;;5035008;28;20022;-71
2023/08/05 08:57:51;;;;;;;4.07;2.47;;;19.50;99.90;;;;;;5035709;28;20029;-71
2023/08/05 09:00:17;;;;;;;7.10;2.87;;;19.60;99.90;;;;;;5035032;28;20040;-71
2023/08/05 09:02:43;;;;;;;4.43;2.87;;;19.70;99.90;;;;;;5035543;28;20021;-71
2023/08/05 09:05:10;;;;;;;4.85;2.83;;;19.80;99.90;;;;;;5034571;28;20029;-72
2023/08/05 09:07:37;;;;;;;6.55;3.22;;;19.80;99.90;;;;;;5035495;28;20321;-71
2023/08/05 09:10:06;;;;;;;5.05;3.20;;;19.80;99.90;;;;;;5035568;28;20052;-71
2023/08/05 09:12:33;;;;;;;7.38;3.03;;;19.90;99.90;;;;;;5035881;28;20021;-70
2023/08/05 09:14:58;;;;;;;;;;;20.00;99.90;;;;;;5037135;28;20026;-71
2023/08/05 09:17:25;;;;;;;5.18;2.58;;;20.20;99.90;;;;;;5046735;28;20304;-71
2023/08/05 09:19:51;;;;;;;3.67;2.88;;;20.40;99.90;;;;;;5029424;28;20057;-71
2023/08/05 09:22:17;;;;;;;4.00;2.40;;;20.50;99.90;;;;;;5018680;28;20304;-71
2023/08/05 09:24:42;;;;;;;4.60;2.87;;;20.70;99.90;;;;;;5047767;28;20028;-71
2023/08/05 09:27:08;;;;;;;5.27;2.83;;;20.80;99.90;;;;;;5030554;28;20040;-71
2023/08/05 09:29:36;;;;;;;5.77;3.03;;;20.80;99.90;;;;;;5026952;28;20317;-70
2023/08/05 09:32:04;;;;;;;5.20;2.95;;;20.70;99.90;;;;;;5030521;28;20049;-70
2023/08/05 09:34:41;;;;;;;3.95;2.47;;;20.60;99.90;;;;;;5029111;28;20321;-71
2023/08/05 09:37:07;;;;;;;4.03;2.85;;;20.50;99.90;;;;;;5018652;28;20113;-70
2023/08/05 09:39:47;;;;;;;7.70;3.22;;;20.40;99.90;;;;;;5015671;28;20029;-71
2023/08/05 09:42:25;;;;;;;3.75;2.20;;;20.30;99.90;;;;;;5027230;28;20025;-70
2023/08/05 09:44:54;;;;;;;6.07;2.65;;;20.30;99.90;;;;;;5020554;28;20044;-71
2023/08/05 09:47:23;;;;;;;2.83;2.42;;;20.30;99.90;;;;;;5033724;28;20071;-70
2023/08/05 09:49:50;;;;;;;2.95;2.65;;;20.30;99.90;;;;;;5024158;28;20025;-71
2023/08/05 09:52:17;;;;;;;4.03;2.67;;;20.40;99.90;;;;;;5034669;28;20022;-71
2023/08/05 09:55:26;;;;;;;3.47;2.40;;;20.50;99.90;;;;;;5034449;28;20025;-70
2023/08/05 09:57:53;;;;;;;5.55;2.40;;;20.50;99.90;;;;;;5018899;28;20046;-70
2023/08/05 10:00:19;;;;;;;3.97;2.70;;;20.60;99.90;;;;;;5028126;28;20021;-70
2023/08/05 10:02:46;;;;;;;4.00;2.58;;;20.60;99.90;;;;;;5022585;28;20438;-71
2023/08/05 10:05:14;;;;;;;;;;;20.70;99.90;;;;;;5042100;28;20025;-71
2023/08/05 10:07:41;;;;;;;3.45;2.42;;;20.60;99.90;;;;;;5034567;28;19909;-70
2023/08/05 10:10:13;;;;;;;3.83;2.58;;;20.60;99.90;;;;;;5021808;28;20018;-71
2023/08/05 10:12:50;;;;;;;4.15;2.47;;;20.60;99.90;;;;;;5020576;28;20028;-71
2023/08/05 10:15:32;;;;;;;3.50;2.17;;;20.60;99.90;;;;;;5023898;28;20088;-71
2023/08/05 10:17:58;;;;;;;4.65;2.50;;;20.60;99.90;;;;;;5031591;28;20050;-70
2023/08/05 10:20:24;;;;;;;3.15;2.83;;;20.50;99.90;;;;;;5029693;28;20428;-80
2023/08/05 10:23:03;;;;;;;3.65;2.35;;;20.40;99.90;;;;;;5033762;28;20109;-70
2023/08/05 10:26:05;;;;;;;3.67;2.40;;;20.20;99.90;;;;;;5026748;28;20029;-69
2023/08/05 10:28:33;;;;;;;6.60;3.33;;;20.00;99.90;;;;;;5033132;28;20026;-70
2023/08/05 10:31:05;;;;;;;4.43;2.70;;;19.80;99.90;;;;;;5027641;28;20042;-70
2023/08/05 10:33:31;;;;;;;5.63;3.78;;;19.80;99.90;;;;;;5034380;28;20025;-71
2023/08/05 10:36:07;;;;;;;4.97;3.10;;;19.60;99.90;;;;;;5020837;28;20431;-70
2023/08/05 10:38:42;;;;;;;4.77;3.60;;;19.40;99.90;;;;;;5025725;28;20429;-70
2023/08/05 10:41:10;;;;;;;8.57;3.97;;;19.20;99.90;;;;;;5028026;28;20682;-71
2023/08/05 10:43:41;;;;;;;6.43;3.10;;;19.00;99.90;;;;;;5029961;28;20036;-71
2023/08/05 10:46:07;;;;;;;6.00;3.92;;;18.70;99.90;;;;;;5038085;28;20157;-71
2023/08/05 10:48:48;;;;;;;7.73;4.60;;;18.60;99.90;;;;;;5027413;28;20108;-71
2023/08/05 10:51:24;;;;;;;8.68;4.25;;;18.30;99.90;;;;;;5033891;28;20017;-71
2023/08/05 10:53:55;;;;;;;7.47;4.28;;;18.10;99.90;;;;;;5033314;28;20351;-71
2023/08/05 10:56:29;;;;;;;5.03;3.88;;;18.20;99.90;;;;;;5035618;28;20481;-71
2023/08/05 10:58:55;;;;;;;7.32;4.32;;;18.10;99.90;;;;;;5037507;28;20025;-71
2023/08/05 11:01:21;;;;;;;9.00;5.07;;;18.30;99.90;;;;;;5036845;28;20439;-72
2023/08/05 11:03:49;;;;;;;9.37;4.97;;;18.30;99.90;;;;;;5032659;28;20034;-70
2023/08/05 11:06:20;;;;;;;9.52;4.93;;;18.40;99.90;;;;;;5024419;28;20030;-70
2023/08/05 11:08:46;;;;;;;8.00;4.75;;;18.50;99.90;;;;;;5019642;28;20412;-71
2023/08/05 11:11:13;;;;;;;11.33;4.90;;;18.50;99.90;;;;;;5036562;28;20080;-70
2023/08/05 11:13:44;;;;;;;7.82;4.95;;;18.60;99.90;;;;;;5020420;28;20328;-70
2023/08/05 11:16:10;;;;;;;7.00;4.53;;;18.60;99.90;;;;;;5036862;28;20029;-70
2023/08/05 11:18:37;;;;;;;8.23;4.13;;;18.60;99.90;;;;;;5037560;28;20026;-71
2023/08/05 11:21:06;;;;;;;6.88;4.13;;;18.60;99.90;;;;;;5035712;28;20030;-70
2023/08/05 11:23:34;;;;;;;7.82;4.30;;;18.50;99.90;;;;;;5026001;28;20107;-81
2023/08/05 11:26:01;;;;;;;11.13;5.20;;;18.40;99.90;;;;;;5036966;28;20033;-70
2023/08/05 11:28:27;;;;;;;8.57;4.38;;;18.30;99.90;;;;;;5025556;28;20375;-81
2023/08/05 11:30:54;;;;;;;5.13;4.03;;;18.20;99.90;;;;;;5028616;28;20045;-70
2023/08/05 11:33:21;;;;;;;5.45;4.03;;;18.10;99.90;;;;;;5052757;28;20044;-71
2023/08/05 11:35:48;;;;;;;6.50;4.45;;;18.00;99.90;;;;;;5029710;28;20025;-80
2023/08/05 11:38:23;;;;;;;10.32;4.13;;;17.90;99.90;;;;;;5048719;28;20048;-70
2023/08/05 11:40:53;;;;;;;5.32;3.83;;;17.90;99.90;;;;;;5027715;28;20029;-71
2023/08/05 11:43:21;;;;;;;6.88;4.20;;;17.90;99.90;;;;;;5017685;28;20098;-70
2023/08/05 11:45:48;;;;;;;7.38;4.28;;;17.80;99.90;;;;;;5034567;28;20044;-70
2023/08/05 11:48:21;;;;;;;7.32;3.42;;;17.80;99.90;;;;;;5051811;28;20364;-71
2023/08/05 11:50:47;;;;;;;5.40;3.63;;;17.80;99.90;;;;;;5042212;28;20357;-71
2023/08/05 11:53:13;;;;;;;5.00;3.63;;;17.80;99.90;;;;;;5040456;28;20025;-70
2023/08/05 11:55:40;;;;;;;4.47;3.50;;;17.70;99.90;;;;;;5046615;28;20182;-72
2023/08/05 11:58:06;;;;;;;9.85;3.20;;;17.70;99.90;;;;;;5042502;28;20017;-70
2023/08/05 12:00:33;;;;;;;4.65;3.13;;;17.60;99.90;;;;;;5056179;28;20030;-80
2023/08/05 12:02:59;;;;;;;;;;;17.60;99.90;;;;;;5030462;28;20462;-71
2023/08/05 12:05:24;;;;;;;5.38;2.88;;;17.50;99.90;;;;;;5030646;28;20000;-70
2023/08/05 12:07:50;;;;;;;5.23;2.90;;;17.40;99.90;;;;;;5048796;28;20032;-71
2023/08/05 12:10:17;;;;;;;18.20;3.30;;;17.40;99.90;;;;;;5048554;28;20021;-70
2023/08/05 12:12:48;;;;;;;4.47;3.15;;;17.40;99.90;;;;;;5042146;28;20048;-71
2023/08/05 12:15:26;;;;;;;5.32;2.60;;;17.30;99.90;;;;;;5025339;28;20018;-71
2023/08/05 12:17:57;;;;;;;2.38;1.60;;;17.10;99.90;;;;;;5030093;28;20030;-82
2023/08/05 12:20:23;;;;;;;3.72;1.90;;;17.00;99.90;;;;;;5035180;28;20033;-71
2023/08/05 12:22:51;;;;;;;4.07;1.70;;;16.90;99.90;;;;;;5043917;28;20029;-71
2023/08/05 12:25:17;;;;;;;3.05;2.08;;;16.90;99.90;;;;;;5051815;28;20029;-70
2023/08/05 12:27:43;;;;;;;3.80;1.73;;;16.80;99.90;;;;;;5043714;28;20028;-71
2023/08/05 12:30:10;;;;;;;4.10;1.70;;;16.70;99.90;;;;;;5037003;28;20128;-71
2023/08/05 12:32:36;;;;;;;2.60;1.65;;;16.60;99.90;;;;;;5021705;28;20030;-71
2023/08/05 12:35:07;;;;;;;2.97;1.85;;;16.50;99.90;;;;;;5038312;28;20040;-73
2023/08/05 12:37:35;;;;;;;2.88;1.20;;;16.30;99.90;;;;;;5039123;28;20116;-71
2023/08/05 12:40:01;;;;;;;4.60;1.70;;;16.20;99.90;;;;;;5032268;28;20025;-71
2023/08/05 12:42:27;;;;;;;3.88;1.70;;;16.10;99.90;;;;;;5041607;28;20028;-85
2023/08/05 12:44:52;;;;;;;2.80;1.70;;;16.00;99.90;;;;;;5047560;28;20165;-71
2023/08/05 12:47:20;;;;;;;4.60;1.80;;;15.90;99.90;;;;;;5046175;28;20087;-70